This is the latest recevied weather packets stored in our database for station/object KA9CBS. If no packets are shown the sender has not sent any weather packets the latest 10 day(s).
| Time | Temp. | Humidity | Pressure | Rain* | Wind** | Luminosity | Snow |
|---|---|---|---|---|---|---|---|
| 1778103145 | 15° C | 60% | 1016.8 hPa | 0 mm | - | 206 W/m² | - |
| 1778102843 | 15° C | 59% | 1016.9 hPa | 0 mm | - | 208 W/m² | - |
| 1778102538 | 15° C | 61% | 1016.8 hPa | 0 mm | - | 220 W/m² | - |
| 1778102234 | 15° C | 57% | 1016.7 hPa | 0 mm | - | 243 W/m² | - |
| 1778101930 | 15.56° C | 58% | 1016.9 hPa | 0 mm | - | 226 W/m² | - |
| 1778101628 | 15° C | 57% | 1016.5 hPa | 0 mm | - | 222 W/m² | - |
| 1778101324 | 15.56° C | 56% | 1016.6 hPa | 0 mm | - | 170 W/m² | - |
| 1778101022 | 15° C | 62% | 1016.7 hPa | 0 mm | - | 208 W/m² | - |
| 1778100716 | 15° C | 62% | 1016.8 hPa | 0 mm | - | 245 W/m² | - |
| 1778100414 | 15° C | 61% | 1017.1 hPa | 0 mm | - | 298 W/m² | - |
| 1778100111 | 15° C | 62% | 1017 hPa | 0 mm | - | 167 W/m² | - |
| 1778099809 | 15° C | 64% | 1017 hPa | 0 mm | - | 140 W/m² | - |
| 1778099506 | 15° C | 65% | 1017.2 hPa | 0 mm | - | 156 W/m² | - |
| 1778099204 | 15° C | 63% | 1017.4 hPa | 0 mm | - | 225 W/m² | - |
| 1778098899 | 15.56° C | 64% | 1017.7 hPa | 0 mm | - | 196 W/m² | - |
| 1778098597 | 15.56° C | 62% | 1017.6 hPa | 0 mm | - | 638 W/m² | - |
| 1778098293 | 14.44° C | 66% | 1017.3 hPa | 0 mm | - | 793 W/m² | - |
| 1778097990 | 13.89° C | 67% | 1017.2 hPa | 0 mm | - | 244 W/m² | - |
| 1778097687 | 13.89° C | 70% | 1017.1 hPa | 0 mm | - | 124 W/m² | - |
| 1778097383 | 13.89° C | 70% | 1017.4 hPa | 0 mm | - | 78 W/m² | - |
| 1778097080 | 13.89° C | 69% | 1017.4 hPa | 0 mm | - | 68 W/m² | - |
| 1778096777 | 14.44° C | 67% | 1017.4 hPa | 0 mm | - | 101 W/m² | - |
| 1778096473 | 14.44° C | 62% | 1017.2 hPa | 0 mm | - | 165 W/m² | - |
| 1778096171 | 14.44° C | 61% | 1017.3 hPa | 0 mm | - | 199 W/m² | - |
| 1778095869 | 15° C | 61% | 1017.3 hPa | 0 mm | - | 285 W/m² | - |
* Rain latest hour (hover to see other rain measurements)
** Current wind speed in m/s (hover to see current wind gust speed)